createdAt,value
2022-09-03T00:01:50.906Z,16.57
2022-09-03T00:04:41.037Z,16.73
2022-09-03T00:07:22.884Z,16.61
2022-09-03T00:09:55.919Z,16.75
2022-09-03T00:12:24.941Z,16.71
2022-09-03T00:15:01.750Z,16.50
2022-09-03T00:17:42.415Z,16.61
2022-09-03T00:20:20.550Z,16.38
2022-09-03T00:22:55.810Z,16.48
2022-09-03T00:25:41.066Z,16.55
2022-09-03T00:28:14.779Z,16.77
2022-09-03T00:30:42.895Z,16.58
2022-09-03T00:33:15.671Z,16.45
2022-09-03T00:35:43.822Z,16.53
2022-09-03T00:38:11.188Z,16.50
2022-09-03T00:41:00.104Z,16.53
2022-09-03T00:43:56.266Z,16.50
2022-09-03T00:46:37.675Z,16.29
2022-09-03T00:49:14.288Z,16.33
2022-09-03T00:52:04.368Z,16.28
2022-09-03T00:54:56.838Z,16.38
2022-09-03T00:57:44.306Z,16.33
2022-09-03T01:00:15.531Z,16.17
2022-09-03T01:03:08.001Z,16.23
2022-09-03T01:06:01.847Z,16.18
2022-09-03T01:08:32.979Z,16.19
2022-09-03T01:11:05.396Z,16.27
2022-09-03T01:13:42.393Z,16.10
2022-09-03T01:16:30.342Z,15.99
2022-09-03T01:19:08.977Z,15.87
2022-09-03T01:22:21.136Z,15.94
2022-09-03T01:25:48.623Z,16.12
2022-09-03T01:28:22.077Z,15.95
2022-09-03T01:30:59.248Z,15.91
2022-09-03T01:34:06.014Z,15.97
2022-09-03T01:36:59.230Z,15.90
2022-09-03T01:39:43.904Z,16.09
2022-09-03T01:42:23.732Z,16.21
2022-09-03T01:45:22.628Z,16.06
2022-09-03T01:48:06.058Z,16.06
2022-09-03T01:50:43.242Z,15.88
2022-09-03T01:53:48.488Z,15.98
2022-09-03T01:56:28.221Z,15.76
2022-09-03T01:59:07.241Z,15.79
2022-09-03T02:02:06.983Z,15.79
2022-09-03T02:04:34.697Z,15.75
2022-09-03T02:07:03.269Z,15.68
2022-09-03T02:09:32.816Z,15.81
2022-09-03T02:12:06.455Z,15.70
2022-09-03T02:14:34.589Z,15.71
2022-09-03T02:17:02.319Z,15.79
2022-09-03T02:19:30.219Z,15.96
2022-09-03T02:21:58.532Z,15.87
2022-09-03T02:24:26.228Z,15.81
2022-09-03T02:26:54.031Z,15.61
2022-09-03T02:29:21.674Z,15.75
2022-09-03T02:31:49.039Z,15.83
2022-09-03T02:34:16.417Z,15.54
2022-09-03T02:36:46.350Z,15.48
2022-09-03T02:39:15.325Z,15.55
2022-09-03T02:41:42.724Z,15.58
2022-09-03T02:44:18.214Z,15.61
2022-09-03T02:47:00.343Z,15.69
2022-09-03T02:49:28.735Z,15.28
2022-09-03T02:52:09.436Z,15.53
2022-09-03T02:54:39.798Z,15.72
2022-09-03T02:57:11.771Z,15.62
2022-09-03T02:59:40.063Z,15.74
2022-09-03T03:02:07.870Z,15.43
2022-09-03T03:04:35.306Z,15.38
2022-09-03T03:07:03.011Z,15.66
2022-09-03T03:09:30.385Z,15.71
2022-09-03T03:11:57.776Z,15.69
2022-09-03T03:14:25.468Z,15.54
2022-09-03T03:16:52.927Z,15.30
2022-09-03T03:19:20.348Z,15.49
2022-09-03T03:21:48.008Z,15.61
2022-09-03T03:24:15.418Z,15.67
2022-09-03T03:26:42.763Z,15.65
2022-09-03T03:29:14.866Z,15.53
2022-09-03T03:31:42.256Z,15.24
2022-09-03T03:34:09.929Z,15.06
2022-09-03T03:36:37.687Z,15.10
2022-09-03T03:39:05.097Z,15.41
2022-09-03T03:41:34.317Z,15.39
2022-09-03T03:44:08.224Z,15.44
2022-09-03T03:46:37.741Z,15.47
2022-09-03T03:49:08.917Z,15.50
2022-09-03T03:51:38.010Z,15.77
2022-09-03T03:54:05.867Z,15.43
2022-09-03T03:56:34.681Z,15.34
2022-09-03T03:59:03.022Z,15.30
2022-09-03T04:01:30.466Z,15.39
2022-09-03T04:04:00.200Z,15.32
2022-09-03T04:06:28.260Z,15.63
2022-09-03T04:08:55.905Z,15.38
2022-09-03T04:11:24.402Z,15.50
2022-09-03T04:13:52.184Z,15.59
2022-09-03T04:16:22.111Z,15.18
2022-09-03T04:18:50.118Z,15.09
2022-09-03T04:21:20.519Z,15.37
2022-09-03T04:23:49.450Z,15.55
2022-09-03T04:26:19.244Z,15.42
2022-09-03T04:28:46.991Z,15.34
2022-09-03T04:31:16.707Z,15.43
2022-09-03T04:33:44.617Z,15.27
2022-09-03T04:36:14.537Z,15.21
2022-09-03T04:38:43.955Z,15.36
2022-09-03T04:41:14.361Z,15.62
2022-09-03T04:43:43.432Z,15.90
2022-09-03T04:46:16.291Z,16.03
2022-09-03T04:48:44.116Z,16.23
2022-09-03T04:51:14.805Z,16.55
2022-09-03T04:53:47.202Z,16.67
2022-09-03T04:56:23.018Z,16.87
2022-09-03T04:58:55.362Z,16.95
2022-09-03T05:01:25.133Z,16.87
2022-09-03T05:03:52.650Z,17.37
2022-09-03T05:06:20.427Z,17.47
2022-09-03T05:08:49.110Z,17.61
2022-09-03T05:11:17.870Z,17.82
2022-09-03T05:13:49.400Z,17.76
2022-09-03T05:16:17.869Z,17.93
2022-09-03T05:18:46.001Z,18.22
2022-09-03T05:21:15.465Z,18.17
2022-09-03T05:23:45.525Z,18.54
2022-09-03T05:26:17.576Z,18.43
2022-09-03T05:28:46.063Z,18.41
2022-09-03T05:31:15.863Z,18.65
2022-09-03T05:33:48.398Z,18.77
2022-09-03T05:36:18.972Z,19.33
2022-09-03T05:38:47.536Z,19.56
2022-09-03T05:41:16.238Z,19.73
2022-09-03T05:43:52.050Z,19.94
2022-09-03T05:46:20.086Z,20.00
2022-09-03T05:48:47.732Z,20.15
2022-09-03T05:51:16.963Z,20.42
2022-09-03T05:53:46.226Z,20.49
2022-09-03T05:56:19.271Z,20.36
2022-09-03T05:58:48.641Z,19.95
2022-09-03T06:04:29.324Z,19.41
2022-09-03T06:06:57.018Z,19.85
2022-09-03T06:09:24.427Z,19.84
2022-09-03T06:11:52.600Z,20.73
2022-09-03T06:14:20.697Z,19.91
2022-09-03T06:16:49.721Z,20.24
2022-09-03T06:19:17.459Z,20.43
2022-09-03T06:21:46.450Z,21.10
2022-09-03T06:24:19.291Z,21.36
2022-09-03T06:26:48.137Z,21.48
2022-09-03T06:29:15.735Z,21.66
2022-09-03T06:31:44.254Z,21.68
2022-09-03T06:34:12.524Z,22.14
2022-09-03T06:36:41.422Z,21.18
2022-09-03T06:39:08.849Z,21.83
2022-09-03T06:41:36.538Z,22.25
2022-09-03T06:44:11.644Z,22.34
2022-09-03T06:46:42.548Z,22.73
2022-09-03T06:49:11.213Z,22.82
2022-09-03T06:51:39.225Z,22.92
2022-09-03T06:54:08.616Z,22.09
2022-09-03T06:56:40.335Z,22.09
2022-09-03T06:59:13.772Z,22.68
2022-09-03T07:01:44.469Z,23.14
2022-09-03T07:04:16.101Z,21.53
2022-09-03T07:06:44.393Z,22.03
2022-09-03T07:09:13.456Z,22.82
2022-09-03T07:11:47.474Z,23.37
2022-09-03T07:14:17.920Z,23.41
2022-09-03T07:16:46.334Z,22.90
2022-09-03T07:19:14.090Z,23.45
2022-09-03T07:21:46.729Z,23.82
2022-09-03T07:24:18.107Z,23.54
2022-09-03T07:26:47.319Z,23.29
2022-09-03T07:29:16.138Z,23.52
2022-09-03T07:31:44.217Z,23.44
2022-09-03T07:34:13.207Z,23.60
2022-09-03T07:36:43.052Z,23.86
2022-09-03T07:39:11.868Z,23.42
2022-09-03T07:41:45.844Z,23.39
2022-09-03T07:44:15.408Z,23.58
2022-09-03T07:46:45.481Z,23.20
2022-09-03T07:49:13.418Z,23.39
2022-09-03T07:51:40.865Z,23.89
2022-09-03T07:54:10.987Z,23.59
2022-09-03T07:56:40.127Z,23.06
2022-09-03T07:59:08.507Z,23.47
2022-09-03T08:01:37.264Z,23.69
2022-09-03T08:04:07.077Z,23.45
2022-09-03T08:06:38.084Z,23.59
2022-09-03T08:09:08.115Z,23.57
2022-09-03T08:11:40.561Z,23.40
2022-09-03T08:14:10.070Z,23.34
2022-09-03T08:16:41.869Z,23.22
2022-09-03T08:19:11.310Z,23.33
2022-09-03T08:21:41.848Z,23.77
2022-09-03T08:24:11.155Z,23.60
2022-09-03T08:26:41.723Z,24.09
2022-09-03T08:29:09.681Z,24.10
2022-09-03T08:31:38.281Z,24.07
2022-09-03T08:34:07.307Z,23.33
2022-09-03T08:36:37.426Z,23.74
2022-09-03T08:39:10.273Z,23.97
2022-09-03T08:41:53.544Z,24.26
2022-09-03T08:44:47.387Z,24.21
2022-09-03T08:47:21.095Z,24.40
2022-09-03T08:49:58.874Z,24.47
2022-09-03T08:52:50.001Z,24.36
2022-09-03T08:55:23.138Z,24.22
2022-09-03T08:57:55.280Z,24.16
2022-09-03T09:00:22.673Z,24.32
2022-09-03T09:03:28.880Z,23.67
2022-09-03T09:06:07.219Z,24.05
2022-09-03T09:08:46.298Z,23.85
2022-09-03T09:11:39.787Z,24.16
2022-09-03T09:14:20.770Z,24.26
2022-09-03T09:17:17.681Z,24.41
2022-09-03T09:20:26.732Z,24.91
2022-09-03T09:23:06.723Z,25.09
2022-09-03T09:25:39.428Z,25.18
2022-09-03T09:28:17.023Z,25.36
2022-09-03T09:30:50.614Z,24.92
2022-09-03T09:33:20.254Z,24.97
2022-09-03T09:35:48.451Z,24.93
2022-09-03T09:38:16.450Z,25.11
2022-09-03T09:40:45.687Z,25.03
2022-09-03T09:43:20.089Z,24.01
2022-09-03T09:45:49.880Z,24.71
2022-09-03T09:48:31.457Z,24.42
2022-09-03T09:51:07.493Z,25.23
2022-09-03T09:53:35.208Z,24.99
2022-09-03T09:56:05.713Z,25.24
2022-09-03T09:58:34.507Z,24.97
2022-09-03T10:01:13.143Z,25.52
2022-09-03T10:03:55.636Z,25.91
2022-09-03T10:06:46.688Z,25.65
2022-09-03T10:09:19.301Z,25.82
2022-09-03T10:11:57.186Z,25.84
2022-09-03T10:14:35.136Z,25.99
2022-09-03T10:17:10.789Z,24.48
2022-09-03T10:20:14.766Z,24.60
2022-09-03T10:22:56.611Z,24.90
2022-09-03T10:25:43.817Z,24.86
2022-09-03T10:28:13.354Z,25.14
2022-09-03T10:30:52.142Z,25.13
2022-09-03T10:33:44.701Z,25.18
2022-09-03T10:36:20.126Z,25.87
2022-09-03T10:38:53.822Z,26.16
2022-09-03T10:41:28.858Z,25.86
2022-09-03T10:44:15.521Z,26.39
2022-09-03T10:47:01.434Z,26.69
2022-09-03T10:49:53.219Z,25.94
2022-09-03T10:52:23.707Z,25.79
2022-09-03T10:55:10.178Z,26.09
2022-09-03T10:58:08.009Z,25.20
2022-09-03T11:00:39.966Z,26.01
2022-09-03T11:03:30.908Z,26.23
2022-09-03T11:06:04.937Z,26.70
2022-09-03T11:08:43.087Z,27.12
2022-09-03T11:11:21.710Z,27.20
2022-09-03T11:14:10.473Z,27.41
2022-09-03T11:16:45.624Z,27.17
2022-09-03T11:19:16.853Z,27.41
2022-09-03T11:21:44.584Z,27.25
2022-09-03T11:24:22.127Z,27.54
2022-09-03T11:27:01.186Z,27.52
2022-09-03T11:29:38.182Z,27.79
2022-09-03T11:32:10.923Z,26.44
2022-09-03T11:34:49.658Z,26.92
2022-09-03T11:37:26.073Z,27.41
2022-09-03T11:40:16.979Z,27.30
2022-09-03T11:42:45.144Z,26.53
2022-09-03T11:45:26.707Z,27.25
2022-09-03T11:47:54.652Z,27.30
2022-09-03T11:50:23.518Z,27.30
2022-09-03T11:52:53.572Z,27.35
2022-09-03T11:55:48.084Z,27.32
2022-09-03T11:58:32.902Z,27.31
2022-09-03T12:01:03.022Z,26.29
2022-09-03T12:03:59.916Z,26.55
2022-09-03T12:06:59.122Z,26.60
2022-09-03T12:10:02.092Z,26.38
2022-09-03T12:12:47.884Z,26.64
2022-09-03T12:15:38.535Z,27.28
2022-09-03T12:18:20.429Z,27.22
2022-09-03T12:21:00.004Z,26.75
2022-09-03T12:23:45.589Z,27.06
2022-09-03T12:26:25.998Z,27.53
2022-09-03T12:28:57.835Z,27.28
2022-09-03T12:31:30.352Z,27.10
2022-09-03T12:34:10.761Z,26.88
2022-09-03T12:36:43.609Z,26.88
2022-09-03T12:39:13.589Z,27.04
2022-09-03T12:42:01.291Z,26.26
2022-09-03T12:44:38.283Z,26.64
2022-09-03T12:50:11.238Z,26.31
2022-09-03T12:52:59.390Z,26.44
2022-09-03T12:55:29.840Z,26.08
2022-09-03T12:58:09.301Z,26.35
2022-09-03T13:00:46.932Z,26.07
2022-09-03T13:03:18.866Z,26.16
2022-09-03T13:05:51.263Z,26.24
2022-09-03T13:08:22.181Z,26.18
2022-09-03T13:10:56.420Z,26.08
2022-09-03T13:13:29.612Z,25.28
2022-09-03T13:16:09.113Z,25.30
2022-09-03T13:18:42.511Z,25.84
2022-09-03T13:21:21.171Z,26.18
2022-09-03T13:24:16.302Z,26.51
2022-09-03T13:27:17.815Z,26.46
2022-09-03T13:29:55.429Z,26.54
2022-09-03T13:32:35.640Z,26.39
2022-09-03T13:35:12.974Z,26.43
2022-09-03T13:37:54.197Z,26.43
2022-09-03T13:40:33.242Z,26.06
2022-09-03T13:43:24.926Z,25.86
2022-09-03T13:45:58.664Z,25.67
2022-09-03T13:48:53.441Z,25.70
2022-09-03T13:51:29.877Z,25.89
2022-09-03T13:54:31.164Z,25.78
2022-09-03T13:57:30.565Z,25.25
2022-09-03T14:00:10.749Z,25.04
2022-09-03T14:03:06.962Z,25.17
2022-09-03T14:05:56.388Z,25.45
2022-09-03T14:08:28.965Z,26.16
2022-09-03T14:10:58.931Z,26.03
2022-09-03T14:14:08.105Z,26.13
2022-09-03T14:16:35.432Z,26.22
2022-09-03T14:19:33.090Z,26.39
2022-09-03T14:22:06.469Z,25.50
2022-09-03T14:24:46.312Z,25.91
2022-09-03T14:27:13.704Z,26.36
2022-09-03T14:29:51.655Z,26.57
2022-09-03T14:32:27.586Z,26.17
2022-09-03T14:35:19.718Z,26.08
2022-09-03T14:38:16.236Z,25.81
2022-09-03T14:41:10.267Z,26.60
2022-09-03T14:43:52.261Z,26.46
2022-09-03T14:46:57.178Z,26.70
2022-09-03T14:49:43.603Z,26.77
2022-09-03T14:52:20.527Z,26.99
2022-09-03T14:55:20.153Z,27.13
2022-09-03T14:58:34.011Z,26.85
2022-09-03T15:01:06.347Z,27.19
2022-09-03T15:03:33.937Z,26.93
2022-09-03T15:06:30.728Z,26.94
2022-09-03T15:09:15.466Z,27.06
2022-09-03T15:12:11.017Z,26.72
2022-09-03T15:14:56.718Z,26.57
2022-09-03T15:17:36.398Z,26.56
2022-09-03T15:20:36.164Z,26.91
2022-09-03T15:23:14.565Z,26.70
2022-09-03T15:26:06.151Z,26.19
2022-09-03T15:29:11.615Z,26.54
2022-09-03T15:32:00.469Z,26.57
2022-09-03T15:34:52.284Z,26.32
2022-09-03T15:37:30.483Z,26.69
2022-09-03T15:40:03.414Z,26.44
2022-09-03T15:42:31.869Z,26.74
2022-09-03T15:45:21.793Z,26.55
2022-09-03T15:47:56.548Z,26.40
2022-09-03T15:50:48.091Z,26.39
2022-09-03T15:53:31.823Z,26.48
2022-09-03T15:56:13.937Z,26.45
2022-09-03T15:58:58.496Z,26.23
2022-09-03T16:01:32.414Z,25.94
2022-09-03T16:04:09.740Z,26.38
2022-09-03T16:06:50.807Z,26.44
2022-09-03T16:10:22.802Z,25.75
2022-09-03T16:12:45.597Z,25.82
2022-09-03T16:15:17.235Z,25.70
2022-09-03T16:18:27.308Z,25.46
2022-09-03T16:21:15.402Z,25.48
2022-09-03T16:24:07.769Z,25.13
2022-09-03T16:26:41.289Z,25.51
2022-09-03T16:29:12.609Z,25.63
2022-09-03T16:32:02.232Z,25.27
2022-09-03T16:34:40.638Z,25.19
2022-09-03T16:37:29.175Z,25.41
2022-09-03T16:40:24.447Z,25.28
2022-09-03T16:43:18.128Z,25.18
2022-09-03T16:46:05.833Z,25.46
2022-09-03T16:48:54.875Z,25.43
2022-09-03T16:51:43.633Z,25.51
2022-09-03T16:54:44.100Z,25.30
2022-09-03T16:57:45.948Z,25.63
2022-09-03T17:00:16.118Z,25.45
2022-09-03T17:03:04.244Z,25.03
2022-09-03T17:05:35.002Z,25.01
2022-09-03T17:08:24.658Z,25.00
2022-09-03T17:11:04.303Z,24.83
2022-09-03T17:13:49.786Z,24.47
2022-09-03T17:16:48.384Z,24.36
2022-09-03T17:19:37.605Z,24.39
2022-09-03T17:22:34.174Z,24.26
2022-09-03T17:25:07.849Z,24.20
2022-09-03T17:27:47.564Z,23.86
2022-09-03T17:30:24.097Z,23.98
2022-09-03T17:33:06.955Z,23.87
2022-09-03T17:35:49.299Z,23.82
2022-09-03T17:38:38.813Z,23.57
2022-09-03T17:41:06.138Z,23.44
2022-09-03T17:43:48.990Z,23.25
2022-09-03T17:46:28.649Z,23.33
2022-09-03T17:49:00.463Z,23.20
2022-09-03T17:51:31.883Z,23.15
2022-09-03T17:54:32.722Z,22.89
2022-09-03T17:57:13.520Z,22.92
2022-09-03T17:59:46.182Z,22.98
2022-09-03T18:02:33.563Z,22.63
2022-09-03T18:05:04.563Z,22.63
2022-09-03T18:07:44.124Z,22.57
2022-09-03T18:10:14.625Z,22.40
2022-09-03T18:13:04.037Z,22.20
2022-09-03T18:16:01.136Z,21.90
2022-09-03T18:18:30.434Z,22.27
2022-09-03T18:21:26.357Z,21.74
2022-09-03T18:24:53.689Z,21.49
2022-09-03T18:27:47.004Z,21.55
2022-09-03T18:30:34.080Z,21.66
2022-09-03T18:33:20.564Z,21.64
2022-09-03T18:36:06.785Z,21.53
2022-09-03T18:38:55.655Z,21.90
2022-09-03T18:42:10.194Z,21.89
2022-09-03T18:45:23.338Z,21.58
2022-09-03T18:48:27.144Z,21.39
2022-09-03T18:51:39.685Z,21.09
2022-09-03T18:54:50.574Z,21.24
2022-09-03T18:57:46.253Z,21.14
2022-09-03T19:00:33.649Z,21.29
2022-09-03T19:03:30.247Z,21.03
2022-09-03T19:06:25.756Z,21.04
2022-09-03T19:09:34.269Z,20.77
2022-09-03T19:12:51.772Z,20.68
2022-09-03T19:16:19.094Z,20.74
2022-09-03T19:19:13.991Z,20.54
2022-09-03T19:22:13.015Z,20.80
2022-09-03T19:24:59.240Z,20.57
2022-09-03T19:27:59.885Z,20.54
2022-09-03T19:31:09.789Z,20.65
2022-09-03T19:37:36.457Z,20.50
2022-09-03T19:40:53.537Z,20.51
2022-09-03T19:43:48.697Z,20.46
2022-09-03T19:46:47.079Z,20.23
2022-09-03T19:49:50.517Z,20.19
2022-09-03T19:52:43.260Z,19.86
2022-09-03T19:55:41.189Z,19.91
2022-09-03T19:58:42.470Z,19.47
2022-09-03T20:01:30.098Z,19.78
2022-09-03T20:04:19.576Z,19.73
2022-09-03T20:07:06.527Z,19.48
2022-09-03T20:09:57.453Z,19.75
2022-09-03T20:12:26.919Z,19.74
2022-09-03T20:14:54.702Z,19.54
2022-09-03T20:17:39.310Z,19.17
2022-09-03T20:20:18.750Z,19.21
2022-09-03T20:23:22.102Z,19.31
2022-09-03T20:26:02.142Z,19.41
2022-09-03T20:28:54.770Z,19.35
2022-09-03T20:31:28.560Z,19.33
2022-09-03T20:34:08.227Z,19.24
2022-09-03T20:36:55.597Z,19.27
2022-09-03T20:39:36.948Z,18.91
2022-09-03T20:42:10.329Z,18.63
2022-09-03T20:44:59.797Z,18.45
2022-09-03T20:47:39.974Z,18.52
2022-09-03T20:50:13.150Z,18.64
2022-09-03T20:53:02.005Z,18.51
2022-09-03T20:55:34.686Z,17.60
2022-09-03T20:58:30.212Z,18.58
2022-09-03T21:01:09.494Z,18.36
2022-09-03T21:04:07.436Z,18.71
2022-09-03T21:06:41.443Z,18.77
2022-09-03T21:09:33.927Z,18.74
2022-09-03T21:12:15.784Z,18.66
2022-09-03T21:15:03.132Z,18.23
2022-09-03T21:17:42.738Z,18.45
2022-09-03T21:20:25.628Z,17.63
2022-09-03T21:23:14.668Z,17.85
2022-09-03T21:25:51.718Z,17.61
2022-09-03T21:28:38.537Z,18.18
2022-09-03T21:31:20.202Z,17.69
2022-09-03T21:33:50.232Z,17.76
2022-09-03T21:36:30.205Z,18.30
2022-09-03T21:39:01.475Z,17.96
2022-09-03T21:41:45.288Z,18.21
2022-09-03T21:44:20.818Z,18.13
2022-09-03T21:46:54.241Z,18.39
2022-09-03T21:49:39.624Z,17.82
2022-09-03T21:52:17.801Z,17.84
2022-09-03T21:54:45.190Z,18.17
2022-09-03T21:57:31.093Z,17.77
2022-09-03T22:00:21.818Z,18.03
2022-09-03T22:02:50.002Z,18.10
2022-09-03T22:05:18.533Z,18.17
2022-09-03T22:07:54.792Z,18.30
2022-09-03T22:11:03.858Z,18.27
2022-09-03T22:13:58.987Z,18.07
2022-09-03T22:16:30.315Z,17.89
2022-09-03T22:18:58.669Z,18.28
2022-09-03T22:21:37.084Z,18.15
2022-09-03T22:24:24.622Z,18.19
2022-09-03T22:27:22.991Z,18.17
2022-09-03T22:29:59.827Z,17.70
2022-09-03T22:32:53.367Z,17.33
2022-09-03T22:35:36.794Z,17.37
2022-09-03T22:38:16.533Z,17.45
2022-09-03T22:40:49.129Z,17.96
2022-09-03T22:43:38.422Z,17.68
2022-09-03T22:46:18.709Z,17.76
2022-09-03T22:49:21.033Z,17.98
2022-09-03T22:52:00.841Z,18.01
2022-09-03T22:54:46.673Z,17.85
2022-09-03T22:57:16.405Z,17.92
2022-09-03T22:59:58.894Z,18.04
2022-09-03T23:02:28.795Z,17.99
2022-09-03T23:05:02.207Z,17.96
2022-09-03T23:07:59.391Z,17.80
2022-09-03T23:10:31.284Z,17.72
2022-09-03T23:13:14.606Z,17.76
2022-09-03T23:15:42.550Z,17.60
2022-09-03T23:18:17.586Z,17.76
2022-09-03T23:20:55.307Z,17.50
2022-09-03T23:23:29.460Z,17.39
2022-09-03T23:26:10.133Z,17.71
2022-09-03T23:28:38.373Z,17.14
2022-09-03T23:31:22.186Z,17.13
2022-09-03T23:33:52.222Z,17.31
2022-09-03T23:37:01.309Z,17.30
2022-09-03T23:39:42.380Z,17.07
2022-09-03T23:42:33.663Z,17.45
2022-09-03T23:45:15.892Z,17.40
2022-09-03T23:48:07.245Z,17.31
2022-09-03T23:50:58.461Z,17.33
2022-09-03T23:53:36.574Z,17.66
2022-09-03T23:56:22.487Z,17.60
2022-09-03T23:59:14.425Z,17.28
